Time;durP1;ratioP1;P1;durP2;ratioP2;P2;SDS_P1;SDS_P2;PMS_P1;PMS_P2;Temp;Humidity;BMP_temperature;BMP_pressure;BME280_temperature;BME280_humidity;BME280_pressure;Samples;Min_cycle;Max_cycle;Signal;HPM_P1;HPM_P2
2021/03/16 00:00:12;;;;;;;16.63;10.52;;;153.80;2124.80;;;;;;5052416;28;20034;-77
2021/03/16 00:02:38;;;;;;;;;;;153.80;2124.80;;;;;;5051824;28;20774;-78
2021/03/16 00:05:05;;;;;;;20.80;10.07;;;153.70;2124.80;;;;;;5050344;28;19908;-77
2021/03/16 00:07:31;;;;;;;14.48;9.55;;;153.70;2124.80;;;;;;5071152;28;20028;-77
2021/03/16 00:09:57;;;;;;;16.65;11.05;;;153.60;2124.80;;;;;;5071342;28;20570;-77
2021/03/16 00:12:23;;;;;;;13.40;9.05;;;153.60;2124.80;;;;;;5051716;28;20048;-77
2021/03/16 00:14:49;;;;;;;12.32;10.13;;;153.60;2124.80;;;;;;5055747;28;20496;-77
2021/03/16 00:17:15;;;;;;;15.13;10.27;;;153.60;2099.20;;;;;;5073107;28;20503;-78
2021/03/16 00:19:41;;;;;;;16.40;10.00;;;128.90;2124.80;;;;;;5052994;28;20103;-77
2021/03/16 00:22:07;;;;;;;14.32;9.55;;;128.90;2124.80;;;;;;5054818;28;20512;-77
2021/03/16 00:24:33;;;;;;;13.80;8.57;;;128.90;2099.20;;;;;;5071714;28;20546;-77
2021/03/16 00:27:02;;;;;;;12.00;10.02;;;128.90;2124.80;;;;;;5053065;28;20534;-77
2021/03/16 00:29:29;;;;;;;17.27;11.68;;;128.90;2124.80;;;;;;5042151;28;20035;-77
2021/03/16 00:31:55;;;;;;;14.27;9.77;;;128.80;2124.80;;;;;;5068054;28;20028;-77
2021/03/16 00:34:26;;;;;;;16.30;10.93;;;128.80;2124.80;;;;;;5053981;28;20115;-77
2021/03/16 00:36:52;;;;;;;15.80;10.32;;;128.80;2099.20;;;;;;5053538;28;20107;-77
2021/03/16 00:39:20;;;;;;;15.30;10.32;;;128.70;2124.80;;;;;;5054037;28;20107;-77
2021/03/16 00:41:45;;;;;;;21.15;11.98;;;128.70;2124.80;;;;;;5053749;28;20117;-77
2021/03/16 00:44:11;;;;;;;16.85;10.82;;;128.70;2124.80;;;;;;5065910;28;20108;-77
2021/03/16 00:46:40;;;;;;;19.40;10.50;;;128.70;2124.80;;;;;;5045494;28;20469;-77
2021/03/16 00:49:08;;;;;;;14.65;10.20;;;128.60;2124.80;;;;;;5071378;28;20024;-77
2021/03/16 00:51:34;;;;;;;15.18;10.30;;;128.60;2150.40;;;;;;5071012;28;20052;-77
2021/03/16 00:54:03;;;;;;;16.48;10.60;;;128.60;2150.40;;;;;;5071289;28;20044;-76
2021/03/16 00:56:28;;;;;;;15.85;9.77;;;128.50;2150.40;;;;;;5053281;28;20036;-76
2021/03/16 00:58:54;;;;;;;15.90;11.82;;;128.60;2150.40;;;;;;5071212;28;20380;-76
2021/03/16 01:01:20;;;;;;;15.63;10.77;;;128.60;2124.80;;;;;;5053791;28;20516;-76
2021/03/16 01:03:45;;;;;;;16.30;11.65;;;128.60;2124.80;;;;;;5053408;28;20028;-76
2021/03/16 01:06:11;;;;;;;13.48;10.68;;;128.60;2124.80;;;;;;5070723;28;20048;-76
2021/03/16 01:08:37;;;;;;;13.52;11.18;;;128.60;2124.80;;;;;;5064091;28;20052;-76
2021/03/16 01:11:03;;;;;;;16.50;10.82;;;128.60;2099.20;;;;;;5054316;28;20507;-75
2021/03/16 01:13:29;;;;;;;13.57;10.70;;;128.60;2099.20;;;;;;5074930;28;20016;-75
2021/03/16 01:15:55;;;;;;;17.15;11.93;;;128.60;2099.20;;;;;;5071930;28;20048;-75
2021/03/16 01:18:20;;;;;;;15.55;11.75;;;128.60;2099.20;;;;;;5071529;28;20070;-75
2021/03/16 01:20:49;;;;;;;13.30;9.30;;;128.60;2099.20;;;;;;5046786;28;20024;-77
2021/03/16 01:23:19;;;;;;;14.73;10.32;;;128.60;2099.20;;;;;;5057202;28;20031;-77
2021/03/16 01:25:47;;;;;;;14.55;10.90;;;128.50;2124.80;;;;;;5074821;28;20066;-76
2021/03/16 01:28:16;;;;;;;15.82;11.02;;;128.50;2124.80;;;;;;5056266;28;20028;-76
2021/03/16 01:30:47;;;;;;;18.92;12.02;;;128.40;2124.80;;;;;;5057221;28;20033;-75
2021/03/16 01:33:13;;;;;;;13.85;10.52;;;128.50;2150.40;;;;;;5060967;28;20025;-76
2021/03/16 01:35:39;;;;;;;14.70;10.00;;;128.40;2150.40;;;;;;5056853;28;20031;-75
2021/03/16 01:38:17;;;;;;;13.32;10.25;;;128.40;2124.80;;;;;;5074543;28;20416;-75
2021/03/16 01:40:46;;;;;;;15.45;10.82;;;128.40;2124.80;;;;;;5074666;28;20021;-75
2021/03/16 01:43:20;;;;;;;15.73;9.63;;;128.40;2124.80;;;;;;5074445;28;20134;-75
2021/03/16 01:45:47;;;;;;;16.52;11.13;;;128.40;2124.80;;;;;;5056472;28;20446;-75
2021/03/16 01:48:15;;;;;;;13.55;9.73;;;128.40;2124.80;;;;;;5074721;28;20056;-76
2021/03/16 01:50:41;;;;;;;15.52;10.55;;;128.30;2124.80;;;;;;5060134;28;20539;-76
2021/03/16 01:53:08;;;;;;;16.02;10.48;;;128.40;2124.80;;;;;;5074500;28;20028;-75
2021/03/16 01:55:35;;;;;;;18.55;11.25;;;128.30;2124.80;;;;;;5056002;28;20024;-76
2021/03/16 01:58:00;;;;;;;18.90;10.68;;;128.40;2124.80;;;;;;5074279;28;20055;-76
2021/03/16 02:00:40;;;;;;;15.82;10.63;;;128.30;2150.40;;;;;;5056045;28;20075;-75
2021/03/16 02:03:12;;;;;;;17.30;10.70;;;128.30;2124.80;;;;;;5071742;28;20020;-75
2021/03/16 02:05:51;;;;;;;14.63;10.27;;;128.30;2150.40;;;;;;5076581;28;20473;-75
2021/03/16 02:08:35;;;;;;;16.02;11.15;;;128.30;2150.40;;;;;;5074327;28;20036;-75
2021/03/16 02:11:13;;;;;;;14.68;10.48;;;128.30;2150.40;;;;;;5054222;28;20072;-74
2021/03/16 02:14:04;;;;;;;14.60;11.15;;;128.20;2150.40;;;;;;5074146;28;20108;-75
2021/03/16 02:16:35;;;;;;;15.38;10.95;;;128.20;2150.40;;;;;;5045496;28;20057;-75
2021/03/16 02:19:05;;;;;;;15.07;10.65;;;128.20;2124.80;;;;;;5039400;28;20026;-75
2021/03/16 02:21:34;;;;;;;13.77;9.98;;;128.20;2099.20;;;;;;5055409;28;20031;-74
2021/03/16 02:24:06;;;;;;;15.43;11.30;;;128.20;2099.20;;;;;;5050550;28;21884;-74
2021/03/16 02:26:53;;;;;;;15.40;9.63;;;128.20;2099.20;;;;;;5064361;28;20014;-75
2021/03/16 02:29:45;;;;;;;;;;;128.20;2073.60;;;;;;5050205;28;20497;-75
2021/03/16 02:32:29;;;;;;;18.65;11.85;;;128.10;2073.60;;;;;;5064625;28;19905;-75
2021/03/16 02:35:01;;;;;;;15.95;11.07;;;128.10;2073.60;;;;;;5043823;28;20436;-75
2021/03/16 02:37:31;;;;;;;16.58;11.90;;;128.10;2073.60;;;;;;5055565;28;20070;-75
2021/03/16 02:39:58;;;;;;;14.30;10.52;;;128.10;2073.60;;;;;;5065277;28;20040;-74
2021/03/16 02:42:25;;;;;;;16.95;10.98;;;128.00;2073.60;;;;;;5049187;28;20028;-75
2021/03/16 02:44:55;;;;;;;20.08;12.57;;;128.00;2099.20;;;;;;5073338;28;20025;-74
2021/03/16 02:47:21;;;;;;;16.58;11.85;;;128.00;2073.60;;;;;;5073103;28;20374;-74
2021/03/16 02:49:51;;;;;;;17.27;12.13;;;128.00;2099.20;;;;;;5068683;28;20059;-76
2021/03/16 02:52:18;;;;;;;14.80;10.93;;;128.00;2073.60;;;;;;5052965;28;20029;-75
2021/03/16 02:54:48;;;;;;;15.80;10.63;;;128.00;2073.60;;;;;;5067165;28;20021;-76
2021/03/16 02:57:20;;;;;;;14.43;11.18;;;103.30;2048.00;;;;;;5035890;28;20029;-76
2021/03/16 02:59:50;;;;;;;14.93;10.13;;;103.30;2073.60;;;;;;5051403;28;20021;-75
2021/03/16 03:02:16;;;;;;;16.17;11.45;;;103.30;2073.60;;;;;;5073432;28;20025;-75
2021/03/16 03:04:45;;;;;;;17.80;12.90;;;103.30;2048.00;;;;;;5071675;28;20046;-76
2021/03/16 03:07:12;;;;;;;19.70;11.52;;;103.20;2073.60;;;;;;5060562;28;20077;-75
2021/03/16 03:09:38;;;;;;;19.00;13.05;;;103.20;2073.60;;;;;;5072660;28;20481;-76
2021/03/16 03:12:08;;;;;;;16.30;10.60;;;103.20;2073.60;;;;;;5060698;28;20028;-75
2021/03/16 03:14:39;;;;;;;13.18;10.43;;;103.20;2073.60;;;;;;5072546;28;20052;-75
2021/03/16 03:17:09;;;;;;;14.95;10.63;;;103.10;2073.60;;;;;;5071540;28;20027;-75
2021/03/16 03:19:35;;;;;;;17.60;11.15;;;103.20;2073.60;;;;;;5054937;28;20031;-77
2021/03/16 03:22:29;;;;;;;17.10;13.38;;;103.10;2073.60;;;;;;5051834;28;20021;-76
2021/03/16 03:25:03;;;;;;;22.25;12.13;;;103.10;2073.60;;;;;;5046517;28;20032;-77
2021/03/16 03:27:38;;;;;;;17.13;11.25;;;103.10;2099.20;;;;;;5082643;28;20028;-75
2021/03/16 03:30:05;;;;;;;15.38;11.18;;;103.00;2099.20;;;;;;5054208;28;20031;-76
2021/03/16 03:32:32;;;;;;;19.35;13.15;;;103.00;2099.20;;;;;;5059523;28;20035;-76
2021/03/16 03:35:00;;;;;;;19.80;12.65;;;103.00;2124.80;;;;;;5071749;28;20025;-76
2021/03/16 03:37:27;;;;;;;21.17;13.02;;;103.00;2099.20;;;;;;5050615;28;20021;-74
2021/03/16 03:39:54;;;;;;;17.58;11.40;;;103.00;2124.80;;;;;;5062067;28;20107;-75
2021/03/16 03:42:20;;;;;;;14.85;10.60;;;102.90;2124.80;;;;;;5053940;28;20107;-75
2021/03/16 03:44:49;;;;;;;19.65;11.63;;;102.90;2124.80;;;;;;5053605;28;20040;-75
2021/03/16 03:47:16;;;;;;;19.38;11.70;;;102.90;2124.80;;;;;;5056314;28;20168;-75
2021/03/16 03:49:44;;;;;;;19.25;11.75;;;102.90;2150.40;;;;;;5054316;28;20078;-76
2021/03/16 03:52:14;;;;;;;22.98;12.73;;;102.90;2150.40;;;;;;5053628;28;20082;-75
2021/03/16 03:54:44;;;;;;;19.50;11.77;;;102.90;2124.80;;;;;;5067840;28;20025;-75
2021/03/16 03:57:12;;;;;;;16.77;12.23;;;102.80;2150.40;;;;;;5053340;28;20025;-76
2021/03/16 03:59:46;;;;;;;16.25;12.35;;;102.80;2150.40;;;;;;5053573;28;20025;-76
2021/03/16 04:02:13;;;;;;;18.02;12.27;;;102.80;2150.40;;;;;;5053875;28;20021;-75
2021/03/16 04:04:42;;;;;;;17.33;11.18;;;102.80;2150.40;;;;;;5072016;28;20444;-75
2021/03/16 04:07:20;;;;;;;17.05;12.75;;;102.80;2150.40;;;;;;5072158;28;20013;-75
2021/03/16 04:09:46;;;;;;;18.30;12.48;;;102.80;2176.00;;;;;;5054308;28;20031;-75
2021/03/16 04:12:12;;;;;;;20.27;13.38;;;102.80;2150.40;;;;;;5053375;28;20674;-75
2021/03/16 04:14:40;;;;;;;23.50;13.38;;;102.80;2150.40;;;;;;5071727;28;20771;-75
2021/03/16 04:17:06;;;;;;;18.30;12.88;;;102.80;2176.00;;;;;;5053725;28;20631;-75
2021/03/16 04:19:32;;;;;;;17.85;11.85;;;102.80;2176.00;;;;;;5053155;28;20031;-76
2021/03/16 04:22:03;;;;;;;20.00;11.63;;;102.80;2176.00;;;;;;5053820;28;20028;-75
2021/03/16 04:24:33;;;;;;;19.70;12.38;;;102.80;2150.40;;;;;;5066522;28;20031;-75
2021/03/16 04:27:19;;;;;;;21.65;12.15;;;102.70;2150.40;;;;;;5052150;28;20020;-75
2021/03/16 04:29:47;;;;;;;17.13;10.85;;;102.70;2176.00;;;;;;5057649;28;20025;-74
2021/03/16 04:32:13;;;;;;;18.23;11.85;;;102.70;2176.00;;;;;;5071652;28;20038;-74
2021/03/16 04:34:41;;;;;;;20.98;13.60;;;102.70;2176.00;;;;;;5078503;28;20096;-74
2021/03/16 04:37:07;;;;;;;17.55;11.85;;;102.70;2176.00;;;;;;5042299;28;20485;-75
2021/03/16 04:39:32;;;;;;;23.08;12.75;;;102.80;2150.40;;;;;;5056861;28;20068;-74
2021/03/16 04:41:58;;;;;;;17.90;12.00;;;102.70;2150.40;;;;;;5048844;28;20120;-75
2021/03/16 04:44:24;;;;;;;18.33;12.77;;;102.80;2176.00;;;;;;5041988;28;20489;-73
2021/03/16 04:46:55;;;;;;;23.55;12.88;;;102.70;2150.40;;;;;;5059472;28;20036;-74
2021/03/16 04:49:20;;;;;;;17.10;11.43;;;102.70;2150.40;;;;;;5060721;28;20380;-74
2021/03/16 04:51:46;;;;;;;17.58;12.40;;;102.70;2176.00;;;;;;5058575;28;20025;-74
2021/03/16 04:54:12;;;;;;;18.83;11.85;;;102.70;2150.40;;;;;;5084469;28;20430;-74
2021/03/16 04:56:40;;;;;;;20.70;14.20;;;102.70;2176.00;;;;;;5060134;28;20021;-74
2021/03/16 04:59:06;;;;;;;27.67;13.25;;;102.70;2150.40;;;;;;5066218;28;20103;-74
2021/03/16 05:01:32;;;;;;;25.10;13.52;;;102.70;2176.00;;;;;;5075049;28;20075;-74
2021/03/16 05:04:00;;;;;;;17.67;11.88;;;102.70;2176.00;;;;;;5074511;28;20025;-74
2021/03/16 05:06:26;;;;;;;18.83;11.40;;;102.70;2176.00;;;;;;5052774;28;20078;-73
2021/03/16 05:08:52;;;;;;;17.83;11.60;;;102.60;2176.00;;;;;;5054296;28;20032;-74
2021/03/16 05:11:24;;;;;;;16.90;11.57;;;102.70;2176.00;;;;;;5063573;28;20025;-73
2021/03/16 05:13:50;;;;;;;20.27;12.43;;;102.70;2176.00;;;;;;5059382;28;20028;-74
2021/03/16 05:16:16;;;;;;;20.42;12.93;;;102.70;2176.00;;;;;;5072603;28;20222;-74
2021/03/16 05:18:42;;;;;;;19.42;12.25;;;102.70;2176.00;;;;;;5074325;28;20043;-74
2021/03/16 05:21:08;;;;;;;17.50;12.95;;;102.70;2176.00;;;;;;5070056;28;20024;-73
2021/03/16 05:23:33;;;;;;;22.27;11.98;;;102.70;2201.60;;;;;;5056548;28;20037;-74
2021/03/16 05:25:59;;;;;;;20.17;13.55;;;102.70;2201.60;;;;;;5056290;28;20123;-74
2021/03/16 05:28:25;;;;;;;16.58;12.20;;;102.80;2201.60;;;;;;5073521;28;20027;-74
2021/03/16 05:30:51;;;;;;;16.80;11.48;;;102.70;2201.60;;;;;;5075377;28;20082;-74
2021/03/16 05:33:19;;;;;;;16.92;11.23;;;102.80;2176.00;;;;;;5065035;28;20032;-73
2021/03/16 05:35:45;;;;;;;17.63;11.57;;;102.80;2201.60;;;;;;5073154;28;20103;-73
2021/03/16 05:38:11;;;;;;;20.85;11.50;;;102.90;2176.00;;;;;;5060567;28;20048;-74
2021/03/16 05:40:37;;;;;;;16.85;11.73;;;102.90;2201.60;;;;;;5072976;28;20508;-74
2021/03/16 05:43:03;;;;;;;18.27;12.40;;;102.90;2201.60;;;;;;5053851;28;20416;-74
2021/03/16 05:45:30;;;;;;;20.25;12.23;;;102.90;2201.60;;;;;;5083016;28;20115;-74
2021/03/16 05:47:57;;;;;;;19.30;12.60;;;102.90;2201.60;;;;;;5081338;28;20032;-74
2021/03/16 05:50:23;;;;;;;16.25;11.30;;;103.00;2176.00;;;;;;5055889;28;20039;-74
2021/03/16 05:52:53;;;;;;;18.33;12.50;;;103.00;2176.00;;;;;;5060951;28;20415;-74
2021/03/16 05:55:19;;;;;;;18.48;12.15;;;103.00;2201.60;;;;;;5057841;28;20020;-74
2021/03/16 05:57:48;;;;;;;18.27;11.90;;;103.10;2176.00;;;;;;5050530;28;20024;-74
2021/03/16 06:00:14;;;;;;;17.90;12.00;;;103.10;2201.60;;;;;;5064318;28;20024;-75
2021/03/16 06:02:40;;;;;;;19.33;11.98;;;103.10;2176.00;;;;;;5078123;28;20021;-74
2021/03/16 06:05:07;;;;;;;17.75;11.95;;;103.10;2176.00;;;;;;5075555;28;20549;-75
2021/03/16 06:07:32;;;;;;;18.80;11.90;;;103.20;2176.00;;;;;;5079054;28;20028;-75
2021/03/16 06:09:58;;;;;;;21.77;12.07;;;103.30;2176.00;;;;;;5060152;28;20040;-74
2021/03/16 06:12:29;;;;;;;19.48;11.98;;;103.30;2176.00;;;;;;5073089;28;20031;-74
2021/03/16 06:14:54;;;;;;;23.67;12.35;;;103.30;2176.00;;;;;;5055489;28;20476;-74
2021/03/16 06:17:20;;;;;;;19.33;11.63;;;128.00;2201.60;;;;;;5073376;28;20103;-74
2021/03/16 06:19:46;;;;;;;19.95;11.30;;;128.00;2201.60;;;;;;5055509;28;20044;-74
2021/03/16 06:22:17;;;;;;;15.00;11.63;;;128.10;2176.00;;;;;;5055762;28;20020;-74
2021/03/16 06:24:45;;;;;;;16.23;10.98;;;128.10;2176.00;;;;;;5065530;28;20469;-73
2021/03/16 06:27:24;;;;;;;17.25;11.57;;;128.20;2176.00;;;;;;5073952;28;20025;-74
2021/03/16 06:29:51;;;;;;;18.42;11.63;;;128.20;2176.00;;;;;;5068991;28;20477;-74
2021/03/16 06:32:17;;;;;;;18.85;11.32;;;128.20;2176.00;;;;;;5056791;28;20436;-74
2021/03/16 06:34:43;;;;;;;19.40;11.38;;;128.20;2176.00;;;;;;5074575;28;20103;-73
2021/03/16 06:37:10;;;;;;;15.98;10.52;;;128.20;2176.00;;;;;;5051380;28;20102;-74
2021/03/16 06:39:43;;;;;;;18.55;12.23;;;128.20;2176.00;;;;;;5055437;28;20021;-74
2021/03/16 06:42:27;;;;;;;16.05;11.07;;;128.30;2176.00;;;;;;5075838;28;20025;-74
2021/03/16 06:45:05;;;;;;;16.65;10.95;;;128.30;2176.00;;;;;;5083468;28;20127;-74
2021/03/16 06:47:38;;;;;;;18.15;12.32;;;128.30;2176.00;;;;;;5060402;28;20035;-74
2021/03/16 06:50:05;;;;;;;26.38;11.80;;;128.30;2176.00;;;;;;5070647;28;20032;-74
2021/03/16 06:52:31;;;;;;;25.65;12.43;;;128.40;2176.00;;;;;;5071324;28;20411;-74
2021/03/16 06:55:13;;;;;;;18.55;11.32;;;128.40;2176.00;;;;;;5075545;28;20021;-74
2021/03/16 06:57:39;;;;;;;18.83;12.48;;;128.50;2176.00;;;;;;5085766;28;20077;-75
2021/03/16 07:00:09;;;;;;;17.40;12.23;;;128.60;2150.40;;;;;;5077191;28;20032;-74
2021/03/16 07:02:35;;;;;;;21.73;11.55;;;128.60;2150.40;;;;;;5071932;28;20374;-75
2021/03/16 07:05:00;;;;;;;23.02;14.13;;;128.70;2150.40;;;;;;5051365;28;20082;-74
2021/03/16 07:07:29;;;;;;;22.45;12.65;;;128.70;2150.40;;;;;;5055070;28;20031;-74
2021/03/16 07:10:01;;;;;;;21.23;14.13;;;128.90;2150.40;;;;;;5071913;28;20031;-73
2021/03/16 07:12:33;;;;;;;26.23;13.70;;;128.80;2150.40;;;;;;5053857;28;20037;-75
2021/03/16 07:15:00;;;;;;;23.15;13.20;;;128.90;2124.80;;;;;;5071899;28;20041;-74
2021/03/16 07:17:27;;;;;;;25.95;12.63;;;153.60;2150.40;;;;;;5074904;28;20099;-74
2021/03/16 07:20:03;;;;;;;55.00;27.50;;;153.70;2124.80;;;;;;5055859;28;20583;-74
2021/03/16 07:22:36;;;;;;;24.15;15.63;;;153.80;2099.20;;;;;;5072225;28;20016;-74
2021/03/16 07:25:07;;;;;;;21.75;14.35;;;153.90;2099.20;;;;;;5073552;28;20036;-74
2021/03/16 07:27:34;;;;;;;17.90;12.50;;;153.90;2048.00;;;;;;5067422;28;20036;-75
2021/03/16 07:30:00;;;;;;;25.65;13.15;;;154.10;2022.40;;;;;;5056228;28;20029;-74
2021/03/16 07:32:28;;;;;;;18.38;13.00;;;154.20;2048.00;;;;;;5071458;28;20473;-74
2021/03/16 07:34:59;;;;;;;19.33;13.98;;;154.30;1996.80;;;;;;5065312;28;20036;-72
2021/03/16 07:37:25;;;;;;;29.42;15.65;;;154.50;1996.80;;;;;;5070433;28;20054;-74
2021/03/16 07:39:51;;;;;;;28.10;17.35;;;179.30;1971.20;;;;;;5070310;28;20032;-74
2021/03/16 07:42:17;;;;;;;26.92;15.82;;;179.30;1971.20;;;;;;5071549;28;20373;-74
2021/03/16 07:44:44;;;;;;;22.33;16.05;;;179.30;1945.60;;;;;;5072640;28;20029;-74
2021/03/16 07:47:09;;;;;;;23.08;13.68;;;179.40;1971.20;;;;;;5054416;28;20027;-74
2021/03/16 07:49:39;;;;;;;16.33;12.85;;;179.50;1996.80;;;;;;5047052;28;20017;-73
2021/03/16 07:52:20;;;;;;;19.25;13.40;;;179.60;1945.60;;;;;;5071612;28;20968;-74
2021/03/16 07:54:48;;;;;;;22.95;15.38;;;179.60;1971.20;;;;;;5050809;28;20032;-74
2021/03/16 07:57:44;;;;;;;25.23;15.85;;;179.60;1971.20;;;;;;5072912;28;20055;-74
2021/03/16 08:00:11;;;;;;;20.83;14.30;;;179.70;1996.80;;;;;;4990089;28;20035;-74
2021/03/16 08:02:38;;;;;;;26.73;16.63;;;179.80;1945.60;;;;;;4994541;28;20046;-73
2021/03/16 08:05:19;;;;;;;22.63;14.68;;;179.90;1945.60;;;;;;4997249;28;20580;-73
2021/03/16 08:07:44;;;;;;;18.63;14.25;;;180.00;1945.60;;;;;;4983796;28;20030;-75
2021/03/16 08:10:10;;;;;;;22.77;14.65;;;180.00;1945.60;;;;;;4992494;28;20517;-73
2021/03/16 08:12:37;;;;;;;28.98;13.93;;;180.10;1894.40;;;;;;4990622;28;20035;-74
2021/03/16 08:15:13;;;;;;;21.05;14.80;;;204.80;1894.40;;;;;;4983517;28;20042;-74
2021/03/16 08:17:40;;;;;;;20.55;14.00;;;204.90;1920.00;;;;;;4989488;28;20043;-74
2021/03/16 08:20:06;;;;;;;19.85;12.60;;;204.90;1894.40;;;;;;4995310;28;20026;-74
2021/03/16 08:22:33;;;;;;;21.02;13.77;;;204.80;1894.40;;;;;;4985644;28;20026;-74
2021/03/16 08:25:03;;;;;;;19.13;13.75;;;204.80;1843.20;;;;;;4973257;28;20027;-73
2021/03/16 08:27:30;;;;;;;23.48;14.65;;;204.80;1894.40;;;;;;4973725;28;20026;-74
2021/03/16 08:29:56;;;;;;;20.40;13.77;;;204.90;1894.40;;;;;;4974850;28;20484;-74
2021/03/16 08:32:23;;;;;;;23.58;13.93;;;204.80;1868.80;;;;;;4988784;28;20042;-74
2021/03/16 08:34:49;;;;;;;26.42;15.02;;;204.90;1894.40;;;;;;4960659;28;20174;-74
2021/03/16 08:37:21;;;;;;;20.73;15.57;;;204.90;1894.40;;;;;;5051531;28;20033;-73
2021/03/16 08:39:47;;;;;;;19.63;14.02;;;205.00;1868.80;;;;;;5057956;28;20028;-73
2021/03/16 08:42:20;;;;;;;20.45;14.00;;;205.10;1894.40;;;;;;5062943;28;20089;-74
2021/03/16 08:44:46;;;;;;;26.25;14.55;;;205.10;1894.40;;;;;;5074767;28;20020;-74
2021/03/16 08:47:15;;;;;;;18.88;14.95;;;205.20;1894.40;;;;;;5076791;28;20480;-73
2021/03/16 08:49:43;;;;;;;23.15;16.40;;;205.30;1868.80;;;;;;5071594;28;20151;-76
2021/03/16 08:52:22;;;;;;;28.13;16.17;;;205.30;1868.80;;;;;;5050228;28;20059;-74
2021/03/16 08:54:49;;;;;;;20.27;15.18;;;205.50;1843.20;;;;;;5054669;28;20066;-74
2021/03/16 08:57:19;;;;;;;26.17;16.92;;;205.50;1843.20;;;;;;5048577;28;20444;-74
2021/03/16 08:59:52;;;;;;;33.78;18.80;;;205.60;1817.60;;;;;;5068669;28;20595;-74
2021/03/16 09:02:29;;;;;;;22.27;16.35;;;205.60;1792.00;;;;;;5069868;28;20032;-74
2021/03/16 09:04:59;;;;;;;24.95;15.02;;;230.40;1792.00;;;;;;5069521;28;20107;-75
2021/03/16 09:07:27;;;;;;;27.63;14.57;;;230.40;1817.60;;;;;;5065544;28;20017;-73
2021/03/16 09:10:08;;;;;;;21.00;15.80;;;230.60;1766.40;;;;;;5071063;28;20095;-74
2021/03/16 09:12:41;;;;;;;20.40;14.77;;;230.70;1740.80;;;;;;5045408;28;20116;-74
2021/03/16 09:15:19;;;;;;;20.27;14.98;;;230.70;1740.80;;;;;;5068485;28;20045;-74
2021/03/16 09:17:47;;;;;;;20.85;13.45;;;230.80;1740.80;;;;;;5052803;28;20024;-74
2021/03/16 09:20:24;;;;;;;19.67;14.43;;;230.90;1740.80;;;;;;5069807;28;20071;-74
2021/03/16 09:23:11;;;;;;;23.58;15.05;;;231.10;1689.60;;;;;;5069092;28;20055;-74
2021/03/16 09:25:43;;;;;;;17.80;11.98;;;231.30;1664.00;;;;;;5052706;28;20025;-74
2021/03/16 09:28:14;;;;;;;26.67;14.65;;;256.00;1638.40;;;;;;5069810;28;20033;-75
2021/03/16 09:30:54;;;;;;;22.50;15.50;;;256.10;1612.80;;;;;;5072747;28;20408;-74
2021/03/16 09:33:21;;;;;;;21.55;13.85;;;256.20;1638.40;;;;;;5055752;28;20024;-74
2021/03/16 09:36:03;;;;;;;19.20;12.57;;;256.30;1638.40;;;;;;5075846;28;20028;-74
2021/03/16 09:38:29;;;;;;;27.90;15.45;;;256.40;1587.20;;;;;;5070489;28;20036;-74
2021/03/16 09:40:56;;;;;;;22.67;15.48;;;256.70;1587.20;;;;;;5072728;28;20052;-74
2021/03/16 09:43:32;;;;;;;20.77;13.40;;;256.80;1612.80;;;;;;5072942;28;20071;-74
2021/03/16 09:45:59;;;;;;;;;;;281.70;1561.60;;;;;;5072286;28;20059;-74
2021/03/16 09:48:26;;;;;;;28.50;15.38;;;281.70;1561.60;;;;;;5049560;28;19918;-74
2021/03/16 09:50:54;;;;;;;22.42;15.05;;;281.90;1510.40;;;;;;5050258;28;20035;-74
2021/03/16 09:53:20;;;;;;;15.32;11.05;;;282.30;1510.40;;;;;;5051984;28;20412;-74
2021/03/16 09:55:59;;;;;;;17.08;11.32;;;282.30;1408.00;;;;;;5075381;28;20025;-74
2021/03/16 09:58:27;;;;;;;18.58;12.45;;;282.30;1408.00;;;;;;5072992;28;20024;-73
2021/03/16 10:00:53;;;;;;;18.40;10.98;;;307.30;1459.20;;;;;;5071229;28;20013;-74
2021/03/16 10:03:20;;;;;;;17.00;11.75;;;307.30;1356.80;;;;;;5070624;28;20115;-74
2021/03/16 10:05:47;;;;;;;18.60;10.55;;;307.50;1382.40;;;;;;5056064;28;20052;-74
2021/03/16 10:08:26;;;;;;;13.77;10.07;;;307.50;1331.20;;;;;;5048161;28;20024;-74
2021/03/16 10:10:53;;;;;;;14.25;11.43;;;307.50;1331.20;;;;;;5054708;28;20032;-74
2021/03/16 10:13:36;;;;;;;14.77;9.43;;;307.40;1356.80;;;;;;5074576;28;20044;-75
2021/03/16 10:16:09;;;;;;;19.80;11.70;;;307.40;1331.20;;;;;;5052595;28;20098;-75
2021/03/16 10:18:44;;;;;;;35.45;17.85;;;307.40;1356.80;;;;;;5051851;28;20025;-75
2021/03/16 10:21:10;;;;;;;25.98;13.15;;;307.20;1356.80;;;;;;5055361;28;20031;-75
2021/03/16 10:23:36;;;;;;;11.63;9.32;;;307.50;1356.80;;;;;;5055938;28;20032;-75
2021/03/16 10:26:12;;;;;;;12.98;9.60;;;307.50;1382.40;;;;;;5054829;28;20040;-74
2021/03/16 10:28:39;;;;;;;;;;;307.90;1331.20;;;;;;5052123;28;20025;-74
2021/03/16 10:31:26;;;;;;;14.77;10.05;;;307.90;1331.20;;;;;;5056090;28;20370;-74
2021/03/16 10:33:54;;;;;;;16.92;10.65;;;308.00;1305.60;;;;;;5066557;28;20032;-75
2021/03/16 10:36:23;;;;;;;16.83;10.85;;;307.90;1356.80;;;;;;5058074;28;20033;-75
2021/03/16 10:38:52;;;;;;;13.10;9.43;;;332.80;1356.80;;;;;;5049707;28;20025;-74
2021/03/16 10:41:19;;;;;;;16.20;10.27;;;332.80;1331.20;;;;;;5078554;28;20040;-74
2021/03/16 10:43:45;;;;;;;12.98;9.60;;;333.00;1305.60;;;;;;5051565;28;20028;-75
2021/03/16 10:46:11;;;;;;;21.35;11.85;;;332.90;1331.20;;;;;;5075635;28;20116;-75
2021/03/16 10:48:37;;;;;;;15.57;9.70;;;333.10;1356.80;;;;;;5051557;28;20104;-75
2021/03/16 10:51:03;;;;;;;22.13;12.30;;;332.80;1331.20;;;;;;5054376;28;20481;-74
2021/03/16 10:53:29;;;;;;;15.63;10.48;;;308.00;1331.20;;;;;;5072370;28;20031;-75
2021/03/16 10:55:55;;;;;;;17.75;12.20;;;307.70;1305.60;;;;;;5072755;28;20047;-75
2021/03/16 10:58:21;;;;;;;15.02;10.43;;;307.80;1382.40;;;;;;5072330;28;20469;-75
2021/03/16 11:00:47;;;;;;;16.75;9.85;;;307.80;1331.20;;;;;;5053154;28;20028;-74
2021/03/16 11:03:13;;;;;;;14.60;10.82;;;308.10;1305.60;;;;;;5047966;28;20521;-75
2021/03/16 11:05:38;;;;;;;13.88;10.25;;;332.90;1305.60;;;;;;5054018;28;20413;-75
2021/03/16 11:08:04;;;;;;;19.55;10.23;;;333.00;1280.00;;;;;;5072255;28;20028;-74
2021/03/16 11:10:30;;;;;;;20.33;12.13;;;332.80;1280.00;;;;;;5047828;28;20043;-74
2021/03/16 11:12:56;;;;;;;18.83;11.68;;;332.80;1280.00;;;;;;5052456;28;20472;-74
2021/03/16 11:15:22;;;;;;;19.20;13.43;;;333.30;1254.40;;;;;;5073014;28;20044;-75
2021/03/16 11:17:48;;;;;;;15.35;10.35;;;333.50;1254.40;;;;;;5046002;28;20028;-75
2021/03/16 11:20:15;;;;;;;17.05;10.68;;;333.40;1228.80;;;;;;5071904;28;20055;-75
2021/03/16 11:22:41;;;;;;;16.38;10.48;;;333.20;1280.00;;;;;;5072212;28;20021;-75
2021/03/16 11:25:07;;;;;;;17.55;10.63;;;333.60;1254.40;;;;;;5055627;28;20036;-74
2021/03/16 11:27:34;;;;;;;15.00;10.07;;;333.00;1280.00;;;;;;5054301;28;20062;-75
2021/03/16 11:30:00;;;;;;;17.75;11.43;;;333.20;1280.00;;;;;;5071637;28;20024;-76
2021/03/16 11:32:26;;;;;;;19.83;11.23;;;333.10;1280.00;;;;;;5053385;28;20451;-75
2021/03/16 11:34:52;;;;;;;15.95;9.40;;;332.80;1280.00;;;;;;5071490;28;20086;-76
2021/03/16 11:37:17;;;;;;;14.30;10.00;;;308.10;1254.40;;;;;;5071938;28;20063;-76
2021/03/16 11:39:45;;;;;;;12.57;9.15;;;307.70;1331.20;;;;;;5048527;28;20029;-75
2021/03/16 11:42:12;;;;;;;13.30;10.65;;;307.60;1356.80;;;;;;5071758;28;20052;-75
2021/03/16 11:44:39;;;;;;;13.60;9.27;;;307.80;1356.80;;;;;;5047208;28;20464;-75
2021/03/16 11:47:04;;;;;;;12.70;9.68;;;308.00;1305.60;;;;;;5071227;28;20045;-75
2021/03/16 11:49:30;;;;;;;15.07;9.75;;;332.80;1280.00;;;;;;5052978;28;20020;-75
2021/03/16 11:51:56;;;;;;;12.63;9.90;;;332.80;1280.00;;;;;;5072074;28;20040;-75
2021/03/16 11:54:22;;;;;;;16.98;10.85;;;332.80;1331.20;;;;;;5052248;28;20047;-75
2021/03/16 11:56:48;;;;;;;15.77;11.50;;;332.90;1305.60;;;;;;5071190;28;20029;-75
2021/03/16 11:59:13;;;;;;;14.75;10.52;;;308.10;1280.00;;;;;;5071499;28;20021;-75
2021/03/16 12:01:39;;;;;;;13.90;10.82;;;308.00;1331.20;;;;;;5049171;28;20024;-75
2021/03/16 12:04:05;;;;;;;16.45;11.38;;;308.00;1331.20;;;;;;5050904;28;20115;-76
2021/03/16 12:06:30;;;;;;;17.02;10.77;;;332.80;1356.80;;;;;;5070759;28;20047;-76
2021/03/16 12:08:56;;;;;;;13.43;10.10;;;332.90;1305.60;;;;;;5083188;28;20027;-76